sensor_id;sensor_type;location;lat;lon;timestamp;temperature;humidity
32476;DHT22;18929;48.008;10.882;2024-02-23T00:02:07;10.00;99.90
32476;DHT22;18929;48.008;10.882;2024-02-23T00:04:34;10.30;99.90
32476;DHT22;18929;48.008;10.882;2024-02-23T00:07:01;10.20;99.90
32476;DHT22;18929;48.008;10.882;2024-02-23T00:09:28;10.20;99.90
32476;DHT22;18929;48.008;10.882;2024-02-23T00:11:55;10.30;99.90
32476;DHT22;18929;48.008;10.882;2024-02-23T00:14:23;10.10;99.90
32476;DHT22;18929;48.008;10.882;2024-02-23T00:16:50;10.10;99.90
32476;DHT22;18929;48.008;10.882;2024-02-23T00:19:17;10.00;99.90
32476;DHT22;18929;48.008;10.882;2024-02-23T00:21:45;10.20;99.90
32476;DHT22;18929;48.008;10.882;2024-02-23T00:24:15;10.10;99.90
32476;DHT22;18929;48.008;10.882;2024-02-23T00:26:42;10.10;99.90
32476;DHT22;18929;48.008;10.882;2024-02-23T00:29:09;10.10;99.90
32476;DHT22;18929;48.008;10.882;2024-02-23T00:31:38;10.20;99.90
32476;DHT22;18929;48.008;10.882;2024-02-23T00:34:09;10.10;99.90
32476;DHT22;18929;48.008;10.882;2024-02-23T00:36:38;9.90;99.90
32476;DHT22;18929;48.008;10.882;2024-02-23T00:39:05;9.60;99.90
32476;DHT22;18929;48.008;10.882;2024-02-23T00:41:32;9.40;99.90
32476;DHT22;18929;48.008;10.882;2024-02-23T00:43:59;9.60;99.90
32476;DHT22;18929;48.008;10.882;2024-02-23T00:46:26;9.60;99.90
32476;DHT22;18929;48.008;10.882;2024-02-23T00:48:54;9.50;99.90
32476;DHT22;18929;48.008;10.882;2024-02-23T00:51:21;9.50;99.90
32476;DHT22;18929;48.008;10.882;2024-02-23T00:53:48;9.00;99.90
32476;DHT22;18929;48.008;10.882;2024-02-23T00:56:15;9.40;99.90
32476;DHT22;18929;48.008;10.882;2024-02-23T00:58:42;9.30;99.90
32476;DHT22;18929;48.008;10.882;2024-02-23T01:01:09;9.50;99.90
32476;DHT22;18929;48.008;10.882;2024-02-23T01:03:36;8.90;99.90
32476;DHT22;18929;48.008;10.882;2024-02-23T01:06:04;9.10;99.90
32476;DHT22;18929;48.008;10.882;2024-02-23T01:08:31;9.30;99.90
32476;DHT22;18929;48.008;10.882;2024-02-23T01:10:57;9.00;99.90
32476;DHT22;18929;48.008;10.882;2024-02-23T01:13:24;9.00;99.90
32476;DHT22;18929;48.008;10.882;2024-02-23T01:15:51;9.00;99.90
32476;DHT22;18929;48.008;10.882;2024-02-23T01:18:19;9.10;99.90
32476;DHT22;18929;48.008;10.882;2024-02-23T01:20:46;9.20;99.90
32476;DHT22;18929;48.008;10.882;2024-02-23T01:23:14;9.40;99.90
32476;DHT22;18929;48.008;10.882;2024-02-23T01:25:41;9.50;99.90
32476;DHT22;18929;48.008;10.882;2024-02-23T01:28:08;9.30;99.90
32476;DHT22;18929;48.008;10.882;2024-02-23T01:30:35;9.40;99.90
32476;DHT22;18929;48.008;10.882;2024-02-23T01:33:02;9.20;99.90
32476;DHT22;18929;48.008;10.882;2024-02-23T01:35:29;9.20;99.90
32476;DHT22;18929;48.008;10.882;2024-02-23T01:37:56;9.20;99.90
32476;DHT22;18929;48.008;10.882;2024-02-23T01:40:24;9.10;99.90
32476;DHT22;18929;48.008;10.882;2024-02-23T01:43:00;9.10;99.90
32476;DHT22;18929;48.008;10.882;2024-02-23T01:45:27;9.10;99.90
32476;DHT22;18929;48.008;10.882;2024-02-23T01:50:57;9.20;99.90
32476;DHT22;18929;48.008;10.882;2024-02-23T01:53:24;9.10;99.90
32476;DHT22;18929;48.008;10.882;2024-02-23T01:55:52;9.10;99.90
32476;DHT22;18929;48.008;10.882;2024-02-23T01:58:20;9.10;99.90
32476;DHT22;18929;48.008;10.882;2024-02-23T02:00:47;9.00;99.90
32476;DHT22;18929;48.008;10.882;2024-02-23T02:03:14;8.90;99.90
32476;DHT22;18929;48.008;10.882;2024-02-23T02:05:41;8.60;99.90
32476;DHT22;18929;48.008;10.882;2024-02-23T02:08:10;8.70;99.90
32476;DHT22;18929;48.008;10.882;2024-02-23T02:10:37;8.30;99.90
32476;DHT22;18929;48.008;10.882;2024-02-23T02:13:06;8.90;99.90
32476;DHT22;18929;48.008;10.882;2024-02-23T02:15:32;9.00;99.90
32476;DHT22;18929;48.008;10.882;2024-02-23T02:17:59;8.90;99.90
32476;DHT22;18929;48.008;10.882;2024-02-23T02:20:26;8.80;99.90
32476;DHT22;18929;48.008;10.882;2024-02-23T02:22:54;8.80;99.90
32476;DHT22;18929;48.008;10.882;2024-02-23T02:25:21;8.60;99.90
32476;DHT22;18929;48.008;10.882;2024-02-23T02:27:48;8.30;99.90
32476;DHT22;18929;48.008;10.882;2024-02-23T02:30:16;8.50;99.90
32476;DHT22;18929;48.008;10.882;2024-02-23T02:32:43;8.50;99.90
32476;DHT22;18929;48.008;10.882;2024-02-23T02:35:10;8.70;99.90
32476;DHT22;18929;48.008;10.882;2024-02-23T02:37:37;8.60;99.90
32476;DHT22;18929;48.008;10.882;2024-02-23T02:40:18;8.90;99.90
32476;DHT22;18929;48.008;10.882;2024-02-23T02:42:45;8.50;99.90
32476;DHT22;18929;48.008;10.882;2024-02-23T02:45:12;8.50;99.90
32476;DHT22;18929;48.008;10.882;2024-02-23T02:47:40;8.60;99.90
32476;DHT22;18929;48.008;10.882;2024-02-23T02:50:08;8.40;99.90
32476;DHT22;18929;48.008;10.882;2024-02-23T02:52:35;8.10;99.90
32476;DHT22;18929;48.008;10.882;2024-02-23T02:55:01;8.20;99.90
32476;DHT22;18929;48.008;10.882;2024-02-23T02:57:29;8.30;99.90
32476;DHT22;18929;48.008;10.882;2024-02-23T02:59:56;8.40;99.90
32476;DHT22;18929;48.008;10.882;2024-02-23T03:02:23;7.70;99.90
32476;DHT22;18929;48.008;10.882;2024-02-23T03:04:51;8.10;99.90
32476;DHT22;18929;48.008;10.882;2024-02-23T03:07:20;8.20;99.90
32476;DHT22;18929;48.008;10.882;2024-02-23T03:09:47;8.40;99.90
32476;DHT22;18929;48.008;10.882;2024-02-23T03:12:14;8.60;99.90
32476;DHT22;18929;48.008;10.882;2024-02-23T03:14:41;8.60;99.90
32476;DHT22;18929;48.008;10.882;2024-02-23T03:17:08;8.40;99.90
32476;DHT22;18929;48.008;10.882;2024-02-23T03:19:35;8.40;99.90
32476;DHT22;18929;48.008;10.882;2024-02-23T03:22:04;8.20;99.90
32476;DHT22;18929;48.008;10.882;2024-02-23T03:24:31;8.30;99.90
32476;DHT22;18929;48.008;10.882;2024-02-23T03:26:58;8.10;99.90
32476;DHT22;18929;48.008;10.882;2024-02-23T03:29:25;8.30;99.90
32476;DHT22;18929;48.008;10.882;2024-02-23T03:31:54;8.20;99.90
32476;DHT22;18929;48.008;10.882;2024-02-23T03:34:21;8.10;99.90
32476;DHT22;18929;48.008;10.882;2024-02-23T03:36:48;7.90;99.90
32476;DHT22;18929;48.008;10.882;2024-02-23T03:39:17;7.60;99.90
32476;DHT22;18929;48.008;10.882;2024-02-23T03:41:59;7.80;99.90
32476;DHT22;18929;48.008;10.882;2024-02-23T03:44:26;7.30;99.90
32476;DHT22;18929;48.008;10.882;2024-02-23T03:46:52;7.40;99.90
32476;DHT22;18929;48.008;10.882;2024-02-23T03:49:19;7.70;99.90
32476;DHT22;18929;48.008;10.882;2024-02-23T03:51:47;8.10;99.90
32476;DHT22;18929;48.008;10.882;2024-02-23T03:54:14;8.10;99.90
32476;DHT22;18929;48.008;10.882;2024-02-23T03:56:42;8.20;99.90
32476;DHT22;18929;48.008;10.882;2024-02-23T03:59:09;8.20;99.90
32476;DHT22;18929;48.008;10.882;2024-02-23T04:01:36;7.90;99.90
32476;DHT22;18929;48.008;10.882;2024-02-23T04:04:03;7.80;99.90
32476;DHT22;18929;48.008;10.882;2024-02-23T04:06:31;8.00;99.90
32476;DHT22;18929;48.008;10.882;2024-02-23T04:08:58;8.10;99.90
32476;DHT22;18929;48.008;10.882;2024-02-23T04:11:37;8.10;99.90
32476;DHT22;18929;48.008;10.882;2024-02-23T04:14:05;8.10;99.90
32476;DHT22;18929;48.008;10.882;2024-02-23T04:16:32;7.90;99.90
32476;DHT22;18929;48.008;10.882;2024-02-23T04:18:59;7.90;99.90
32476;DHT22;18929;48.008;10.882;2024-02-23T04:21:26;8.00;99.90
32476;DHT22;18929;48.008;10.882;2024-02-23T04:23:53;8.00;99.90
32476;DHT22;18929;48.008;10.882;2024-02-23T04:26:20;8.10;99.90
32476;DHT22;18929;48.008;10.882;2024-02-23T04:28:47;8.10;99.90
32476;DHT22;18929;48.008;10.882;2024-02-23T04:31:15;8.00;99.90
32476;DHT22;18929;48.008;10.882;2024-02-23T04:33:42;8.10;99.90
32476;DHT22;18929;48.008;10.882;2024-02-23T04:36:08;8.10;99.90
32476;DHT22;18929;48.008;10.882;2024-02-23T04:38:35;8.00;99.90
32476;DHT22;18929;48.008;10.882;2024-02-23T04:41:02;8.00;99.90
32476;DHT22;18929;48.008;10.882;2024-02-23T04:43:30;8.10;99.90
32476;DHT22;18929;48.008;10.882;2024-02-23T04:48:36;8.10;99.90
32476;DHT22;18929;48.008;10.882;2024-02-23T04:51:03;8.00;99.90
32476;DHT22;18929;48.008;10.882;2024-02-23T04:53:32;8.00;99.90
32476;DHT22;18929;48.008;10.882;2024-02-23T04:56:02;8.10;99.90
32476;DHT22;18929;48.008;10.882;2024-02-23T04:58:29;8.00;99.90
32476;DHT22;18929;48.008;10.882;2024-02-23T05:00:56;7.90;99.90
32476;DHT22;18929;48.008;10.882;2024-02-23T05:03:23;7.80;99.90
32476;DHT22;18929;48.008;10.882;2024-02-23T05:05:51;7.80;99.90
32476;DHT22;18929;48.008;10.882;2024-02-23T05:08:19;7.90;99.90
32476;DHT22;18929;48.008;10.882;2024-02-23T05:10:46;7.80;99.90
32476;DHT22;18929;48.008;10.882;2024-02-23T05:13:13;7.80;99.90
32476;DHT22;18929;48.008;10.882;2024-02-23T05:15:40;7.80;99.90
32476;DHT22;18929;48.008;10.882;2024-02-23T05:21:04;8.00;99.90
32476;DHT22;18929;48.008;10.882;2024-02-23T05:23:31;8.00;99.90
32476;DHT22;18929;48.008;10.882;2024-02-23T05:25:58;8.10;99.90
32476;DHT22;18929;48.008;10.882;2024-02-23T05:28:25;8.00;99.90
32476;DHT22;18929;48.008;10.882;2024-02-23T05:30:53;7.80;99.90
32476;DHT22;18929;48.008;10.882;2024-02-23T05:33:20;7.70;99.90
32476;DHT22;18929;48.008;10.882;2024-02-23T05:35:47;7.60;99.90
32476;DHT22;18929;48.008;10.882;2024-02-23T05:38:15;7.60;99.90
32476;DHT22;18929;48.008;10.882;2024-02-23T05:40:42;7.70;99.90
32476;DHT22;18929;48.008;10.882;2024-02-23T05:43:10;7.60;99.90
32476;DHT22;18929;48.008;10.882;2024-02-23T05:45:38;7.70;99.90
32476;DHT22;18929;48.008;10.882;2024-02-23T05:48:05;7.70;99.90
32476;DHT22;18929;48.008;10.882;2024-02-23T05:50:33;7.60;99.90
32476;DHT22;18929;48.008;10.882;2024-02-23T05:53:00;7.60;99.90
32476;DHT22;18929;48.008;10.882;2024-02-23T05:55:28;7.50;99.90
32476;DHT22;18929;48.008;10.882;2024-02-23T05:57:55;7.50;99.90
32476;DHT22;18929;48.008;10.882;2024-02-23T06:00:22;7.50;99.90
32476;DHT22;18929;48.008;10.882;2024-02-23T06:02:49;7.50;99.90
32476;DHT22;18929;48.008;10.882;2024-02-23T06:05:15;7.60;99.90
32476;DHT22;18929;48.008;10.882;2024-02-23T06:07:42;7.70;99.90
32476;DHT22;18929;48.008;10.882;2024-02-23T06:10:09;7.50;99.90
32476;DHT22;18929;48.008;10.882;2024-02-23T06:12:37;7.50;99.90
32476;DHT22;18929;48.008;10.882;2024-02-23T06:15:05;7.50;99.90
32476;DHT22;18929;48.008;10.882;2024-02-23T06:17:35;7.60;99.90
32476;DHT22;18929;48.008;10.882;2024-02-23T06:20:02;7.60;99.90
32476;DHT22;18929;48.008;10.882;2024-02-23T06:22:29;7.70;99.90
32476;DHT22;18929;48.008;10.882;2024-02-23T06:24:58;7.60;99.90
32476;DHT22;18929;48.008;10.882;2024-02-23T06:27:25;7.60;99.90
32476;DHT22;18929;48.008;10.882;2024-02-23T06:29:54;7.50;99.90
32476;DHT22;18929;48.008;10.882;2024-02-23T06:32:21;7.40;99.90
32476;DHT22;18929;48.008;10.882;2024-02-23T06:34:50;7.40;99.90
32476;DHT22;18929;48.008;10.882;2024-02-23T06:37:17;7.80;99.90
32476;DHT22;18929;48.008;10.882;2024-02-23T06:39:44;7.60;99.90
32476;DHT22;18929;48.008;10.882;2024-02-23T06:42:15;7.60;99.90
32476;DHT22;18929;48.008;10.882;2024-02-23T06:44:42;7.40;99.90
32476;DHT22;18929;48.008;10.882;2024-02-23T06:47:10;7.50;99.90
32476;DHT22;18929;48.008;10.882;2024-02-23T06:49:40;7.70;99.90
32476;DHT22;18929;48.008;10.882;2024-02-23T06:52:07;7.70;99.90
32476;DHT22;18929;48.008;10.882;2024-02-23T06:54:34;7.60;99.90
32476;DHT22;18929;48.008;10.882;2024-02-23T06:57:01;7.50;99.90
32476;DHT22;18929;48.008;10.882;2024-02-23T06:59:28;7.40;99.90
32476;DHT22;18929;48.008;10.882;2024-02-23T07:01:55;7.10;99.90
32476;DHT22;18929;48.008;10.882;2024-02-23T07:04:23;7.40;99.90
32476;DHT22;18929;48.008;10.882;2024-02-23T07:06:57;7.60;99.90
32476;DHT22;18929;48.008;10.882;2024-02-23T07:09:24;7.60;99.90
32476;DHT22;18929;48.008;10.882;2024-02-23T07:11:51;7.50;99.90
32476;DHT22;18929;48.008;10.882;2024-02-23T07:14:18;7.30;99.90
32476;DHT22;18929;48.008;10.882;2024-02-23T07:16:47;7.30;99.90
32476;DHT22;18929;48.008;10.882;2024-02-23T07:19:14;7.50;99.90
32476;DHT22;18929;48.008;10.882;2024-02-23T07:21:42;7.50;99.90
32476;DHT22;18929;48.008;10.882;2024-02-23T07:24:09;7.50;99.90
32476;DHT22;18929;48.008;10.882;2024-02-23T07:26:36;7.80;99.90
32476;DHT22;18929;48.008;10.882;2024-02-23T07:29:03;7.60;99.90
32476;DHT22;18929;48.008;10.882;2024-02-23T07:31:30;7.70;99.90
32476;DHT22;18929;48.008;10.882;2024-02-23T07:33:57;7.60;99.90
32476;DHT22;18929;48.008;10.882;2024-02-23T07:36:24;7.80;99.90
32476;DHT22;18929;48.008;10.882;2024-02-23T07:38:52;7.80;99.90
32476;DHT22;18929;48.008;10.882;2024-02-23T07:44:13;7.90;99.90
32476;DHT22;18929;48.008;10.882;2024-02-23T07:46:40;7.90;99.90
32476;DHT22;18929;48.008;10.882;2024-02-23T07:49:07;7.90;99.90
32476;DHT22;18929;48.008;10.882;2024-02-23T07:51:35;7.90;99.90
32476;DHT22;18929;48.008;10.882;2024-02-23T07:54:03;7.80;99.90
32476;DHT22;18929;48.008;10.882;2024-02-23T07:56:30;8.00;99.90
32476;DHT22;18929;48.008;10.882;2024-02-23T07:58:58;7.80;99.90
32476;DHT22;18929;48.008;10.882;2024-02-23T08:01:24;7.90;99.90
32476;DHT22;18929;48.008;10.882;2024-02-23T08:03:51;7.80;99.90
32476;DHT22;18929;48.008;10.882;2024-02-23T08:06:18;7.80;99.90
32476;DHT22;18929;48.008;10.882;2024-02-23T08:08:45;8.10;99.90
32476;DHT22;18929;48.008;10.882;2024-02-23T08:13:51;7.60;99.90
32476;DHT22;18929;48.008;10.882;2024-02-23T08:16:18;7.70;99.90
32476;DHT22;18929;48.008;10.882;2024-02-23T08:18:45;7.90;99.90
32476;DHT22;18929;48.008;10.882;2024-02-23T08:21:12;7.90;99.90
32476;DHT22;18929;48.008;10.882;2024-02-23T08:23:39;7.60;99.90
32476;DHT22;18929;48.008;10.882;2024-02-23T08:26:06;7.80;99.90
32476;DHT22;18929;48.008;10.882;2024-02-23T08:28:34;7.90;99.90
32476;DHT22;18929;48.008;10.882;2024-02-23T08:31:02;7.80;99.90
32476;DHT22;18929;48.008;10.882;2024-02-23T08:33:30;7.60;99.90
32476;DHT22;18929;48.008;10.882;2024-02-23T08:35:57;7.80;99.90
32476;DHT22;18929;48.008;10.882;2024-02-23T08:38:24;7.80;99.90
32476;DHT22;18929;48.008;10.882;2024-02-23T08:40:51;7.80;99.90
32476;DHT22;18929;48.008;10.882;2024-02-23T08:43:18;7.70;99.90
32476;DHT22;18929;48.008;10.882;2024-02-23T08:45:45;7.60;99.90
32476;DHT22;18929;48.008;10.882;2024-02-23T08:48:13;7.40;99.90
32476;DHT22;18929;48.008;10.882;2024-02-23T08:50:41;7.40;99.90
32476;DHT22;18929;48.008;10.882;2024-02-23T08:53:08;7.70;99.90
32476;DHT22;18929;48.008;10.882;2024-02-23T08:55:35;7.70;99.90
32476;DHT22;18929;48.008;10.882;2024-02-23T08:58:02;7.70;99.90
32476;DHT22;18929;48.008;10.882;2024-02-23T09:00:28;7.90;99.90
32476;DHT22;18929;48.008;10.882;2024-02-23T09:02:55;8.00;99.90
32476;DHT22;18929;48.008;10.882;2024-02-23T09:05:23;7.80;99.90
32476;DHT22;18929;48.008;10.882;2024-02-23T09:07:50;7.80;99.90
32476;DHT22;18929;48.008;10.882;2024-02-23T09:10:27;7.80;99.90
32476;DHT22;18929;48.008;10.882;2024-02-23T09:12:54;7.80;99.90
32476;DHT22;18929;48.008;10.882;2024-02-23T09:15:21;8.10;99.90
32476;DHT22;18929;48.008;10.882;2024-02-23T09:17:48;8.00;99.90
32476;DHT22;18929;48.008;10.882;2024-02-23T09:20:19;8.20;99.90
32476;DHT22;18929;48.008;10.882;2024-02-23T09:22:50;8.00;99.90
32476;DHT22;18929;48.008;10.882;2024-02-23T09:25:18;7.80;99.90
32476;DHT22;18929;48.008;10.882;2024-02-23T09:27:44;7.80;99.90
32476;DHT22;18929;48.008;10.882;2024-02-23T09:30:12;7.90;99.90
32476;DHT22;18929;48.008;10.882;2024-02-23T09:32:39;7.80;99.90
32476;DHT22;18929;48.008;10.882;2024-02-23T09:35:06;7.70;99.90
32476;DHT22;18929;48.008;10.882;2024-02-23T09:37:33;7.60;99.90
32476;DHT22;18929;48.008;10.882;2024-02-23T09:40:01;7.80;99.90
32476;DHT22;18929;48.008;10.882;2024-02-23T09:42:28;7.80;99.90
32476;DHT22;18929;48.008;10.882;2024-02-23T09:44:58;7.60;99.90
32476;DHT22;18929;48.008;10.882;2024-02-23T09:47:25;8.00;99.90
32476;DHT22;18929;48.008;10.882;2024-02-23T09:49:53;8.10;99.90
32476;DHT22;18929;48.008;10.882;2024-02-23T09:52:21;8.20;99.90
32476;DHT22;18929;48.008;10.882;2024-02-23T09:54:47;8.00;99.90
32476;DHT22;18929;48.008;10.882;2024-02-23T09:57:16;7.70;99.90
32476;DHT22;18929;48.008;10.882;2024-02-23T09:59:43;7.80;99.90
32476;DHT22;18929;48.008;10.882;2024-02-23T10:02:11;8.00;99.90
32476;DHT22;18929;48.008;10.882;2024-02-23T10:04:41;8.00;99.90
32476;DHT22;18929;48.008;10.882;2024-02-23T10:07:09;8.00;99.90
32476;DHT22;18929;48.008;10.882;2024-02-23T10:09:35;8.20;99.90
32476;DHT22;18929;48.008;10.882;2024-02-23T10:12:02;8.30;99.90
32476;DHT22;18929;48.008;10.882;2024-02-23T10:14:31;8.20;99.90
32476;DHT22;18929;48.008;10.882;2024-02-23T10:16:58;8.10;99.90
32476;DHT22;18929;48.008;10.882;2024-02-23T10:19:25;8.40;99.90
32476;DHT22;18929;48.008;10.882;2024-02-23T10:21:54;8.20;99.90
32476;DHT22;18929;48.008;10.882;2024-02-23T10:24:21;8.10;99.90
32476;DHT22;18929;48.008;10.882;2024-02-23T10:26:49;7.80;99.90
32476;DHT22;18929;48.008;10.882;2024-02-23T10:29:15;7.60;99.90
32476;DHT22;18929;48.008;10.882;2024-02-23T10:31:44;7.80;99.90
32476;DHT22;18929;48.008;10.882;2024-02-23T10:34:15;7.90;99.90
32476;DHT22;18929;48.008;10.882;2024-02-23T10:36:44;7.80;99.90
32476;DHT22;18929;48.008;10.882;2024-02-23T10:39:15;7.80;99.90
32476;DHT22;18929;48.008;10.882;2024-02-23T10:41:43;7.80;99.90
32476;DHT22;18929;48.008;10.882;2024-02-23T10:44:12;8.00;99.90
32476;DHT22;18929;48.008;10.882;2024-02-23T10:46:39;7.80;99.90
32476;DHT22;18929;48.008;10.882;2024-02-23T10:49:08;7.50;99.90
32476;DHT22;18929;48.008;10.882;2024-02-23T10:51:35;7.50;99.90
32476;DHT22;18929;48.008;10.882;2024-02-23T10:54:04;7.70;99.90
32476;DHT22;18929;48.008;10.882;2024-02-23T10:56:30;7.50;99.90
32476;DHT22;18929;48.008;10.882;2024-02-23T10:58:57;7.50;99.90
32476;DHT22;18929;48.008;10.882;2024-02-23T11:01:27;7.50;99.90
32476;DHT22;18929;48.008;10.882;2024-02-23T11:03:55;7.70;99.90
32476;DHT22;18929;48.008;10.882;2024-02-23T11:06:28;7.50;99.90
32476;DHT22;18929;48.008;10.882;2024-02-23T11:11:25;7.40;99.90
32476;DHT22;18929;48.008;10.882;2024-02-23T11:13:52;7.10;99.90
32476;DHT22;18929;48.008;10.882;2024-02-23T11:16:22;7.40;99.90
32476;DHT22;18929;48.008;10.882;2024-02-23T11:18:49;7.40;99.90
32476;DHT22;18929;48.008;10.882;2024-02-23T11:21:34;7.00;99.90
32476;DHT22;18929;48.008;10.882;2024-02-23T11:24:03;7.10;99.90
32476;DHT22;18929;48.008;10.882;2024-02-23T11:26:30;7.20;99.90
32476;DHT22;18929;48.008;10.882;2024-02-23T11:28:57;7.10;99.90
32476;DHT22;18929;48.008;10.882;2024-02-23T11:31:25;7.30;99.90
32476;DHT22;18929;48.008;10.882;2024-02-23T11:33:55;7.40;99.90
32476;DHT22;18929;48.008;10.882;2024-02-23T11:36:22;7.60;99.90
32476;DHT22;18929;48.008;10.882;2024-02-23T11:38:56;7.40;99.90
32476;DHT22;18929;48.008;10.882;2024-02-23T11:41:23;7.40;99.90
32476;DHT22;18929;48.008;10.882;2024-02-23T11:43:50;7.30;99.90
32476;DHT22;18929;48.008;10.882;2024-02-23T11:46:17;7.60;99.90
32476;DHT22;18929;48.008;10.882;2024-02-23T11:48:44;7.60;99.90
32476;DHT22;18929;48.008;10.882;2024-02-23T11:51:12;7.40;99.90
32476;DHT22;18929;48.008;10.882;2024-02-23T11:53:39;7.20;99.90
32476;DHT22;18929;48.008;10.882;2024-02-23T11:56:07;7.30;99.90
32476;DHT22;18929;48.008;10.882;2024-02-23T11:58:34;7.60;99.90
32476;DHT22;18929;48.008;10.882;2024-02-23T12:01:01;7.70;99.90
32476;DHT22;18929;48.008;10.882;2024-02-23T12:03:29;7.50;99.90
32476;DHT22;18929;48.008;10.882;2024-02-23T12:05:56;7.80;99.90
32476;DHT22;18929;48.008;10.882;2024-02-23T12:08:26;7.80;99.90
32476;DHT22;18929;48.008;10.882;2024-02-23T12:10:53;7.70;99.90
32476;DHT22;18929;48.008;10.882;2024-02-23T12:13:22;7.80;99.90
32476;DHT22;18929;48.008;10.882;2024-02-23T12:15:51;7.80;99.90
32476;DHT22;18929;48.008;10.882;2024-02-23T12:18:18;7.60;99.90
32476;DHT22;18929;48.008;10.882;2024-02-23T12:20:48;7.40;99.90
32476;DHT22;18929;48.008;10.882;2024-02-23T12:23:15;7.20;99.90
32476;DHT22;18929;48.008;10.882;2024-02-23T12:25:51;7.40;99.90
32476;DHT22;18929;48.008;10.882;2024-02-23T12:28:18;7.40;99.90
32476;DHT22;18929;48.008;10.882;2024-02-23T12:30:46;7.50;99.90
32476;DHT22;18929;48.008;10.882;2024-02-23T12:33:39;7.60;99.90
32476;DHT22;18929;48.008;10.882;2024-02-23T12:36:07;7.90;99.90
32476;DHT22;18929;48.008;10.882;2024-02-23T12:38:34;7.80;99.90
32476;DHT22;18929;48.008;10.882;2024-02-23T12:41:01;8.10;99.90
32476;DHT22;18929;48.008;10.882;2024-02-23T12:43:29;8.20;99.90
32476;DHT22;18929;48.008;10.882;2024-02-23T12:45:57;8.10;99.90
32476;DHT22;18929;48.008;10.882;2024-02-23T12:48:24;8.10;99.90
32476;DHT22;18929;48.008;10.882;2024-02-23T12:50:51;7.40;99.90
32476;DHT22;18929;48.008;10.882;2024-02-23T12:53:30;7.60;99.90
32476;DHT22;18929;48.008;10.882;2024-02-23T12:55:57;7.80;99.90
32476;DHT22;18929;48.008;10.882;2024-02-23T12:58:24;7.90;99.90
32476;DHT22;18929;48.008;10.882;2024-02-23T13:00:51;8.00;99.90
32476;DHT22;18929;48.008;10.882;2024-02-23T13:03:19;8.10;99.90
32476;DHT22;18929;48.008;10.882;2024-02-23T13:05:46;8.00;99.90
32476;DHT22;18929;48.008;10.882;2024-02-23T13:08:13;7.40;99.90
32476;DHT22;18929;48.008;10.882;2024-02-23T13:10:40;7.80;99.90
32476;DHT22;18929;48.008;10.882;2024-02-23T13:13:07;7.90;99.90
32476;DHT22;18929;48.008;10.882;2024-02-23T13:15:34;7.60;99.90
32476;DHT22;18929;48.008;10.882;2024-02-23T13:18:02;7.20;99.90
32476;DHT22;18929;48.008;10.882;2024-02-23T13:20:49;7.30;99.90
32476;DHT22;18929;48.008;10.882;2024-02-23T13:23:16;7.40;99.90
32476;DHT22;18929;48.008;10.882;2024-02-23T13:25:43;7.80;99.90
32476;DHT22;18929;48.008;10.882;2024-02-23T13:28:10;7.80;99.90
32476;DHT22;18929;48.008;10.882;2024-02-23T13:30:37;7.80;99.90
32476;DHT22;18929;48.008;10.882;2024-02-23T13:33:04;7.20;99.90
32476;DHT22;18929;48.008;10.882;2024-02-23T13:35:33;7.30;99.90
32476;DHT22;18929;48.008;10.882;2024-02-23T13:38:01;7.60;99.90
32476;DHT22;18929;48.008;10.882;2024-02-23T13:43:00;7.60;99.90
32476;DHT22;18929;48.008;10.882;2024-02-23T13:45:27;7.50;99.90
32476;DHT22;18929;48.008;10.882;2024-02-23T13:47:57;7.80;99.90
32476;DHT22;18929;48.008;10.882;2024-02-23T13:50:24;7.70;99.90
32476;DHT22;18929;48.008;10.882;2024-02-23T13:52:51;7.30;99.90
32476;DHT22;18929;48.008;10.882;2024-02-23T13:55:20;7.30;99.90
32476;DHT22;18929;48.008;10.882;2024-02-23T13:57:47;7.20;99.90
32476;DHT22;18929;48.008;10.882;2024-02-23T14:00:15;7.20;99.90
32476;DHT22;18929;48.008;10.882;2024-02-23T14:02:42;7.20;99.90
32476;DHT22;18929;48.008;10.882;2024-02-23T14:05:10;7.10;99.90
32476;DHT22;18929;48.008;10.882;2024-02-23T14:07:37;7.00;99.90
32476;DHT22;18929;48.008;10.882;2024-02-23T14:10:04;7.00;99.90
32476;DHT22;18929;48.008;10.882;2024-02-23T14:12:32;7.30;99.90
32476;DHT22;18929;48.008;10.882;2024-02-23T14:15:00;7.50;99.90
32476;DHT22;18929;48.008;10.882;2024-02-23T14:17:27;7.80;99.90
32476;DHT22;18929;48.008;10.882;2024-02-23T14:19:53;7.70;99.90
32476;DHT22;18929;48.008;10.882;2024-02-23T14:22:20;7.50;99.90
32476;DHT22;18929;48.008;10.882;2024-02-23T14:24:47;7.60;99.90
32476;DHT22;18929;48.008;10.882;2024-02-23T14:27:14;7.40;99.90
32476;DHT22;18929;48.008;10.882;2024-02-23T14:29:42;7.60;99.90
32476;DHT22;18929;48.008;10.882;2024-02-23T14:32:15;7.70;99.90
32476;DHT22;18929;48.008;10.882;2024-02-23T14:34:41;7.70;99.90
32476;DHT22;18929;48.008;10.882;2024-02-23T14:37:08;7.50;99.90
32476;DHT22;18929;48.008;10.882;2024-02-23T14:39:35;7.60;99.90
32476;DHT22;18929;48.008;10.882;2024-02-23T14:42:02;7.40;99.90
32476;DHT22;18929;48.008;10.882;2024-02-23T14:44:29;7.30;99.90
32476;DHT22;18929;48.008;10.882;2024-02-23T14:46:57;7.30;99.90
32476;DHT22;18929;48.008;10.882;2024-02-23T14:49:24;7.10;99.90
32476;DHT22;18929;48.008;10.882;2024-02-23T14:51:51;7.20;99.90
32476;DHT22;18929;48.008;10.882;2024-02-23T14:54:18;7.50;99.90
32476;DHT22;18929;48.008;10.882;2024-02-23T14:56:45;7.80;99.90
32476;DHT22;18929;48.008;10.882;2024-02-23T14:59:12;7.80;99.90
32476;DHT22;18929;48.008;10.882;2024-02-23T15:01:39;7.10;99.90
32476;DHT22;18929;48.008;10.882;2024-02-23T15:04:08;7.40;99.90
32476;DHT22;18929;48.008;10.882;2024-02-23T15:06:35;7.90;99.90
32476;DHT22;18929;48.008;10.882;2024-02-23T15:09:03;8.00;99.90
32476;DHT22;18929;48.008;10.882;2024-02-23T15:11:30;8.20;99.90
32476;DHT22;18929;48.008;10.882;2024-02-23T15:13:57;8.10;99.90
32476;DHT22;18929;48.008;10.882;2024-02-23T15:16:24;8.30;99.90
32476;DHT22;18929;48.008;10.882;2024-02-23T15:18:51;8.20;99.90
32476;DHT22;18929;48.008;10.882;2024-02-23T15:21:19;7.50;99.90
32476;DHT22;18929;48.008;10.882;2024-02-23T15:23:46;7.20;99.90
32476;DHT22;18929;48.008;10.882;2024-02-23T15:26:13;7.30;99.90
32476;DHT22;18929;48.008;10.882;2024-02-23T15:28:40;7.50;99.90
32476;DHT22;18929;48.008;10.882;2024-02-23T15:31:07;7.60;99.90
32476;DHT22;18929;48.008;10.882;2024-02-23T15:33:35;7.60;99.90
32476;DHT22;18929;48.008;10.882;2024-02-23T15:36:04;7.50;99.90
32476;DHT22;18929;48.008;10.882;2024-02-23T15:41:12;7.90;99.90
32476;DHT22;18929;48.008;10.882;2024-02-23T15:43:39;8.40;99.90
32476;DHT22;18929;48.008;10.882;2024-02-23T15:46:06;8.70;99.90
32476;DHT22;18929;48.008;10.882;2024-02-23T15:48:33;8.80;99.90
32476;DHT22;18929;48.008;10.882;2024-02-23T15:51:07;8.00;99.90
32476;DHT22;18929;48.008;10.882;2024-02-23T15:53:35;7.60;99.90
32476;DHT22;18929;48.008;10.882;2024-02-23T15:56:02;8.30;99.90